createdAt,value
2018-11-29T00:01:13.035Z,2.96
2018-11-29T00:05:21.931Z,2.99
2018-11-29T00:09:39.725Z,2.94
2018-11-29T00:13:47.413Z,3.02
2018-11-29T00:17:55.118Z,3.06
2018-11-29T00:22:02.824Z,3.07
2018-11-29T00:26:10.603Z,3.07
2018-11-29T00:30:27.447Z,3.07
2018-11-29T00:34:37.751Z,3.10
2018-11-29T00:38:45.483Z,3.08
2018-11-29T00:42:53.244Z,3.12
2018-11-29T00:47:01.020Z,3.16
2018-11-29T00:51:09.050Z,3.09
2018-11-29T00:55:21.858Z,3.16
2018-11-29T00:59:30.441Z,3.10
2018-11-29T01:03:39.011Z,3.09
2018-11-29T01:07:47.312Z,3.09
2018-11-29T01:11:55.850Z,3.27
2018-11-29T01:16:03.718Z,3.31
2018-11-29T01:20:19.026Z,3.22
2018-11-29T01:24:27.478Z,3.16
2018-11-29T01:28:35.388Z,3.00
2018-11-29T01:32:43.496Z,3.15
2018-11-29T01:36:51.357Z,3.07
2018-11-29T01:40:59.083Z,2.95
2018-11-29T01:45:07.111Z,3.04
2018-11-29T01:49:15.001Z,3.00
2018-11-29T01:53:22.908Z,3.05
2018-11-29T01:57:30.684Z,2.97
2018-11-29T02:01:38.432Z,3.08
2018-11-29T02:05:46.048Z,3.13
2018-11-29T02:10:13.091Z,3.12
2018-11-29T02:14:20.930Z,3.09
2018-11-29T02:18:28.590Z,3.04
2018-11-29T02:22:36.278Z,3.21
2018-11-29T02:26:43.906Z,3.15
2018-11-29T02:30:51.499Z,3.15
2018-11-29T02:35:01.617Z,3.10
2018-11-29T02:39:10.958Z,3.02
2018-11-29T02:43:18.627Z,3.22
2018-11-29T02:47:27.232Z,3.16
2018-11-29T02:51:34.945Z,3.13
2018-11-29T02:55:42.680Z,3.13
2018-11-29T02:59:50.359Z,3.15
2018-11-29T03:03:58.418Z,3.09
2018-11-29T03:08:06.432Z,3.12
2018-11-29T03:12:14.127Z,3.21
2018-11-29T03:16:21.924Z,3.19
2018-11-29T03:20:29.993Z,3.27
2018-11-29T03:24:37.797Z,3.22
2018-11-29T03:28:45.671Z,3.22
2018-11-29T03:32:54.325Z,3.16
2018-11-29T03:37:01.852Z,3.14
2018-11-29T03:41:10.081Z,3.24
2018-11-29T03:45:18.534Z,3.22
2018-11-29T03:49:26.571Z,3.20
2018-11-29T03:53:34.379Z,3.09
2018-11-29T03:57:43.159Z,3.26
2018-11-29T04:01:57.637Z,3.09
2018-11-29T04:06:07.303Z,3.14
2018-11-29T04:10:17.039Z,3.29
2018-11-29T04:14:25.440Z,3.16
2018-11-29T04:18:33.083Z,3.30
2018-11-29T04:22:40.674Z,3.25
2018-11-29T04:26:48.143Z,3.29
2018-11-29T04:30:55.912Z,3.27
2018-11-29T04:35:03.699Z,3.25
2018-11-29T04:39:11.293Z,3.31
2018-11-29T04:43:19.231Z,3.32
2018-11-29T04:47:32.714Z,3.31
2018-11-29T04:51:43.465Z,3.26
2018-11-29T04:55:51.049Z,3.33
2018-11-29T04:59:58.760Z,3.21
2018-11-29T05:04:06.959Z,3.22
2018-11-29T05:08:14.864Z,3.39
2018-11-29T05:12:22.662Z,3.39
2018-11-29T05:16:30.631Z,3.35
2018-11-29T05:20:38.299Z,3.32
2018-11-29T05:24:46.164Z,3.30
2018-11-29T05:28:54.363Z,3.27
2018-11-29T05:33:02.205Z,3.25
2018-11-29T05:37:10.229Z,3.35
2018-11-29T05:41:18.056Z,3.22
2018-11-29T05:45:26.430Z,3.28
2018-11-29T05:49:34.444Z,3.36
2018-11-29T05:53:42.319Z,3.46
2018-11-29T05:57:49.832Z,3.30
2018-11-29T06:01:58.123Z,3.29
2018-11-29T06:06:05.756Z,3.45
2018-11-29T06:10:14.250Z,3.34
2018-11-29T06:14:22.744Z,3.32
2018-11-29T06:18:30.833Z,3.36
2018-11-29T06:22:39.606Z,3.53
2018-11-29T06:26:47.287Z,3.43
2018-11-29T06:30:55.929Z,3.47
2018-11-29T06:35:06.149Z,3.42
2018-11-29T06:39:14.069Z,3.44
2018-11-29T06:43:22.005Z,3.42
2018-11-29T06:47:30.207Z,3.40
2018-11-29T06:51:38.126Z,3.43
2018-11-29T06:55:46.665Z,3.71
2018-11-29T06:59:54.820Z,3.42
2018-11-29T07:04:03.708Z,3.52
2018-11-29T07:08:11.698Z,3.39
2018-11-29T07:12:20.099Z,3.34
2018-11-29T07:16:27.708Z,3.46
2018-11-29T07:20:36.094Z,3.34
2018-11-29T07:24:43.778Z,3.22
2018-11-29T07:28:51.682Z,3.36
2018-11-29T07:32:59.659Z,3.37
2018-11-29T07:37:07.404Z,3.31
2018-11-29T07:41:14.844Z,3.12
2018-11-29T07:45:23.539Z,3.29
2018-11-29T07:49:33.792Z,3.22
2018-11-29T07:53:41.218Z,3.29
2018-11-29T07:57:50.331Z,3.38
2018-11-29T08:01:57.826Z,3.23
2018-11-29T08:06:05.403Z,3.17
2018-11-29T08:10:17.329Z,3.34
2018-11-29T08:14:24.904Z,3.36
2018-11-29T08:18:33.248Z,3.38
2018-11-29T08:22:40.829Z,3.42
2018-11-29T08:26:48.241Z,3.40
2018-11-29T08:30:55.643Z,3.42
2018-11-29T08:35:03.541Z,3.37
2018-11-29T08:39:14.434Z,3.44
2018-11-29T08:43:23.307Z,3.35
2018-11-29T08:47:33.556Z,3.37
2018-11-29T08:51:41.457Z,3.36
2018-11-29T08:55:49.067Z,3.51
2018-11-29T08:59:56.955Z,3.39
2018-11-29T09:04:04.507Z,3.41
2018-11-29T09:08:12.196Z,3.54
2018-11-29T09:12:19.787Z,3.52
2018-11-29T09:16:27.601Z,3.46
2018-11-29T09:20:38.668Z,3.65
2018-11-29T09:24:46.242Z,3.87
2018-11-29T09:28:53.950Z,3.91
2018-11-29T09:33:01.477Z,4.15
2018-11-29T09:37:09.374Z,4.25
2018-11-29T09:41:17.225Z,4.29
2018-11-29T09:45:26.143Z,4.39
2018-11-29T09:49:33.858Z,4.74
2018-11-29T09:53:43.339Z,4.82
2018-11-29T09:57:51.698Z,5.06
2018-11-29T10:01:59.439Z,5.04
2018-11-29T10:06:07.091Z,4.86
2018-11-29T10:10:15.104Z,5.23
2018-11-29T10:14:22.750Z,5.35
2018-11-29T10:18:31.117Z,5.30
2018-11-29T10:22:40.521Z,5.33
2018-11-29T10:26:48.347Z,5.30
2018-11-29T10:31:03.849Z,5.05
2018-11-29T10:35:12.658Z,5.26
2018-11-29T10:39:20.731Z,5.17
2018-11-29T10:43:28.342Z,4.99
2018-11-29T10:47:36.863Z,5.23
2018-11-29T10:51:44.393Z,5.15
2018-11-29T10:55:52.093Z,4.77
2018-11-29T11:00:00.010Z,5.01
2018-11-29T11:04:08.088Z,4.99
2018-11-29T11:08:16.068Z,4.93
2018-11-29T11:12:23.768Z,5.03
2018-11-29T11:16:31.344Z,4.98
2018-11-29T11:20:39.231Z,4.98
2018-11-29T11:24:46.871Z,4.92
2018-11-29T11:28:54.607Z,5.07
2018-11-29T11:33:02.587Z,5.01
2018-11-29T11:37:10.353Z,5.05
2018-11-29T11:41:18.118Z,5.18
2018-11-29T11:45:26.030Z,5.27
2018-11-29T11:49:34.117Z,5.09
2018-11-29T11:53:41.982Z,5.34
2018-11-29T11:57:50.570Z,5.25
2018-11-29T12:01:58.527Z,5.06
2018-11-29T12:06:06.178Z,5.11
2018-11-29T12:10:15.758Z,5.13
2018-11-29T12:14:26.879Z,5.25
2018-11-29T12:18:35.554Z,5.26
2018-11-29T12:22:43.365Z,5.45
2018-11-29T12:26:51.494Z,5.41
2018-11-29T12:31:06.750Z,5.43
2018-11-29T12:35:14.424Z,5.30
2018-11-29T12:39:26.734Z,5.44
2018-11-29T12:43:37.321Z,5.52
2018-11-29T12:47:47.465Z,5.51
2018-11-29T12:51:55.872Z,5.52
2018-11-29T12:56:06.521Z,5.50
2018-11-29T13:00:19.392Z,5.47
2018-11-29T13:04:27.389Z,5.55
2018-11-29T13:08:35.193Z,5.55
2018-11-29T13:12:43.137Z,5.60
2018-11-29T13:16:54.311Z,5.67
2018-11-29T13:21:07.928Z,5.53
2018-11-29T13:25:20.383Z,5.53
2018-11-29T13:29:28.655Z,5.66
2018-11-29T13:33:41.866Z,5.63
2018-11-29T13:38:18.185Z,5.44
2018-11-29T13:42:26.097Z,5.40
2018-11-29T13:46:34.248Z,5.38
2018-11-29T13:50:42.340Z,5.34
2018-11-29T13:54:50.910Z,5.55
2018-11-29T13:58:58.370Z,5.63
2018-11-29T14:03:15.639Z,5.64
2018-11-29T14:07:27.090Z,5.53
2018-11-29T14:11:38.024Z,5.65
2018-11-29T14:15:45.726Z,5.77
2018-11-29T14:19:53.854Z,5.65
2018-11-29T14:24:02.704Z,5.75
2018-11-29T14:28:11.457Z,5.79
2018-11-29T14:32:19.009Z,5.71
2018-11-29T14:36:28.467Z,5.55
2018-11-29T14:40:38.812Z,5.51
2018-11-29T14:44:47.289Z,5.36
2018-11-29T14:48:56.074Z,5.33
2018-11-29T14:53:03.669Z,5.52
2018-11-29T14:57:20.736Z,5.62
2018-11-29T15:01:29.044Z,5.61
2018-11-29T15:05:38.465Z,5.56
2018-11-29T15:09:46.368Z,5.65
2018-11-29T15:13:54.119Z,5.70
2018-11-29T15:18:01.953Z,5.79
2018-11-29T15:22:10.925Z,5.89
2018-11-29T15:26:19.608Z,5.89
2018-11-29T15:30:27.812Z,5.92
2018-11-29T15:34:36.824Z,5.99
2018-11-29T15:38:45.099Z,6.08
2018-11-29T15:42:54.051Z,6.09
2018-11-29T15:47:01.537Z,6.17
2018-11-29T15:51:10.583Z,5.57
2018-11-29T15:55:30.128Z,5.76
2018-11-29T15:59:41.159Z,5.65
2018-11-29T16:03:52.515Z,5.58
2018-11-29T16:08:01.246Z,5.63
2018-11-29T16:12:12.446Z,5.68
2018-11-29T16:16:19.988Z,5.69
2018-11-29T16:20:32.876Z,5.60
2018-11-29T16:24:44.415Z,5.57
2018-11-29T16:28:56.229Z,5.61
2018-11-29T16:33:35.317Z,5.64
2018-11-29T16:37:43.993Z,5.60
2018-11-29T16:41:55.584Z,5.52
2018-11-29T16:46:03.852Z,5.52
2018-11-29T16:50:17.263Z,5.56
2018-11-29T16:54:25.123Z,5.52
2018-11-29T16:58:33.482Z,5.66
2018-11-29T17:02:41.033Z,5.75
2018-11-29T17:10:56.734Z,5.73
2018-11-29T17:15:04.346Z,5.77
2018-11-29T17:19:11.936Z,5.81
2018-11-29T17:23:25.995Z,5.82
2018-11-29T17:27:33.832Z,5.88
2018-11-29T17:31:43.943Z,5.88
2018-11-29T17:35:51.735Z,5.88
2018-11-29T17:40:04.071Z,5.92
2018-11-29T17:44:12.019Z,5.90
2018-11-29T17:48:19.940Z,5.92
2018-11-29T17:52:28.085Z,6.05
2018-11-29T17:56:35.812Z,6.03
2018-11-29T18:00:50.590Z,6.12
2018-11-29T18:04:59.185Z,6.09
2018-11-29T18:09:12.197Z,6.09
2018-11-29T18:13:32.010Z,6.17
2018-11-29T18:17:44.773Z,6.08
2018-11-29T18:21:59.760Z,6.13
2018-11-29T18:26:08.264Z,6.04
2018-11-29T18:30:21.125Z,6.10
2018-11-29T18:34:29.277Z,6.11
2018-11-29T18:38:37.115Z,6.07
2018-11-29T18:42:49.140Z,6.03
2018-11-29T18:47:02.296Z,6.22
2018-11-29T18:51:10.561Z,6.08
2018-11-29T18:55:18.730Z,5.99
2018-11-29T18:59:26.649Z,5.95
2018-11-29T19:03:34.651Z,5.86
2018-11-29T19:07:42.914Z,5.79
2018-11-29T19:11:51.282Z,5.80
2018-11-29T19:15:59.008Z,5.79
2018-11-29T19:20:09.269Z,5.81
2018-11-29T19:24:26.049Z,5.67
2018-11-29T19:28:37.186Z,5.71
2018-11-29T19:32:45.303Z,5.62
2018-11-29T19:37:00.998Z,5.61
2018-11-29T19:41:11.841Z,5.59
2018-11-29T19:45:19.951Z,5.60
2018-11-29T19:49:27.733Z,5.61
2018-11-29T19:53:35.999Z,5.57
2018-11-29T19:57:43.933Z,5.52
2018-11-29T20:01:58.755Z,5.53
2018-11-29T20:06:07.218Z,5.59
2018-11-29T20:10:27.086Z,5.50
2018-11-29T20:14:34.078Z,5.54
2018-11-29T20:18:43.405Z,5.51
2018-11-29T20:22:51.448Z,5.35
2018-11-29T20:26:59.139Z,5.37
2018-11-29T20:31:07.623Z,5.40
2018-11-29T20:35:20.226Z,5.34
2018-11-29T20:39:28.221Z,5.27
2018-11-29T20:43:36.136Z,5.30
2018-11-29T20:47:44.364Z,5.15
2018-11-29T20:51:52.005Z,5.20
2018-11-29T20:55:59.561Z,5.16
2018-11-29T21:00:12.020Z,5.16
2018-11-29T21:04:20.116Z,5.12
2018-11-29T21:08:28.001Z,5.13
2018-11-29T21:12:36.540Z,5.06
2018-11-29T21:16:45.803Z,5.06
2018-11-29T21:20:53.257Z,5.04
2018-11-29T21:25:00.715Z,4.99
2018-11-29T21:29:09.355Z,5.04
2018-11-29T21:33:17.491Z,5.06
2018-11-29T21:37:29.784Z,4.99
2018-11-29T21:41:38.651Z,4.94
2018-11-29T21:45:48.639Z,4.88
2018-11-29T21:49:56.665Z,4.88
2018-11-29T21:54:08.239Z,4.78
2018-11-29T21:58:22.291Z,4.71
2018-11-29T22:02:35.783Z,4.66
2018-11-29T22:06:46.061Z,4.61
2018-11-29T22:11:03.870Z,4.59
2018-11-29T22:15:13.929Z,4.59
2018-11-29T22:19:24.339Z,4.50
2018-11-29T22:23:38.718Z,4.47
2018-11-29T22:27:49.440Z,4.68
2018-11-29T22:31:57.956Z,4.53
2018-11-29T22:36:07.927Z,4.50
2018-11-29T22:40:24.321Z,4.44
2018-11-29T22:44:34.003Z,4.43
2018-11-29T22:48:53.191Z,4.46
2018-11-29T22:53:04.380Z,4.50
2018-11-29T22:57:11.781Z,4.31
2018-11-29T23:01:28.804Z,4.47
2018-11-29T23:05:36.475Z,4.39
2018-11-29T23:09:43.936Z,4.46
2018-11-29T23:13:51.403Z,4.48
2018-11-29T23:17:59.219Z,4.37
2018-11-29T23:22:06.946Z,4.38
2018-11-29T23:26:14.578Z,4.41
2018-11-29T23:30:22.378Z,4.35
2018-11-29T23:34:29.844Z,4.43
2018-11-29T23:38:38.343Z,4.50
2018-11-29T23:42:46.207Z,4.46
2018-11-29T23:46:53.744Z,4.38
2018-11-29T23:51:01.260Z,4.44
2018-11-29T23:55:11.318Z,4.50
2018-11-29T23:59:19.018Z,4.48
